createdAt,value
2022-09-01T00:00:32.578Z,75.25
2022-09-01T00:03:01.873Z,75.34
2022-09-01T00:05:41.921Z,75.00
2022-09-01T00:08:11.157Z,75.36
2022-09-01T00:10:45.937Z,75.94
2022-09-01T00:13:17.167Z,76.74
2022-09-01T00:15:51.534Z,76.46
2022-09-01T00:18:25.706Z,76.62
2022-09-01T00:20:58.766Z,76.35
2022-09-01T00:23:28.360Z,76.06
2022-09-01T00:25:58.309Z,75.79
2022-09-01T00:28:30.420Z,75.84
2022-09-01T00:31:00.430Z,75.84
2022-09-01T00:33:29.846Z,75.44
2022-09-01T00:35:59.592Z,75.23
2022-09-01T00:38:29.521Z,75.16
2022-09-01T00:41:00.393Z,75.11
2022-09-01T00:43:44.034Z,75.37
2022-09-01T00:46:18.445Z,75.44
2022-09-01T00:48:54.944Z,75.38
2022-09-01T00:51:25.812Z,74.76
2022-09-01T00:53:55.619Z,74.91
2022-09-01T00:56:25.765Z,74.52
2022-09-01T00:58:56.958Z,75.32
2022-09-01T01:01:26.307Z,75.79
2022-09-01T01:04:02.514Z,76.09
2022-09-01T01:06:32.597Z,76.07
2022-09-01T01:09:03.103Z,76.76
2022-09-01T01:11:34.153Z,76.87
2022-09-01T01:14:10.169Z,76.62
2022-09-01T01:16:44.692Z,76.79
2022-09-01T01:19:41.273Z,77.09
2022-09-01T01:22:49.323Z,77.20
2022-09-01T01:25:22.115Z,76.69
2022-09-01T01:27:51.743Z,76.76
2022-09-01T01:30:23.338Z,76.50
2022-09-01T01:32:55.586Z,76.80
2022-09-01T01:35:31.689Z,76.61
2022-09-01T01:38:01.679Z,76.41
2022-09-01T01:40:32.971Z,76.33
2022-09-01T01:43:03.401Z,76.68
2022-09-01T01:45:39.652Z,76.77
2022-09-01T01:48:10.181Z,77.37
2022-09-01T01:50:51.246Z,77.24
2022-09-01T01:53:21.569Z,77.14
2022-09-01T01:55:53.109Z,77.33
2022-09-01T01:58:35.543Z,77.12
2022-09-01T02:01:12.205Z,76.56
2022-09-01T02:03:42.256Z,77.17
2022-09-01T02:06:13.681Z,77.52
2022-09-01T02:08:43.941Z,77.53
2022-09-01T02:11:16.965Z,77.19
2022-09-01T02:13:49.280Z,77.02
2022-09-01T02:16:20.655Z,76.85
2022-09-01T02:18:50.874Z,76.97
2022-09-01T02:21:28.705Z,77.01
2022-09-01T02:24:01.796Z,76.52
2022-09-01T02:26:39.160Z,76.24
2022-09-01T02:29:17.459Z,75.99
2022-09-01T02:31:48.752Z,76.19
2022-09-01T02:34:18.604Z,75.92
2022-09-01T02:36:50.523Z,75.58
2022-09-01T02:39:29.109Z,75.68
2022-09-01T02:42:01.204Z,75.88
2022-09-01T02:44:32.295Z,75.54
2022-09-01T02:47:05.195Z,75.15
2022-09-01T02:49:36.745Z,74.78
2022-09-01T02:52:06.040Z,74.79
2022-09-01T02:54:35.924Z,74.65
2022-09-01T02:57:18.142Z,74.94
2022-09-01T02:59:47.991Z,74.75
2022-09-01T03:02:17.028Z,75.07
2022-09-01T03:04:50.119Z,75.26
2022-09-01T03:07:23.522Z,75.21
2022-09-01T03:09:52.924Z,74.66
2022-09-01T03:12:24.102Z,74.76
2022-09-01T03:14:53.429Z,73.80
2022-09-01T03:17:22.564Z,73.88
2022-09-01T03:19:51.747Z,73.97
2022-09-01T03:22:22.452Z,73.64
2022-09-01T03:24:51.727Z,73.82
2022-09-01T03:27:20.830Z,73.19
2022-09-01T03:32:32.878Z,72.82
2022-09-01T03:35:09.066Z,72.40
2022-09-01T03:37:39.175Z,72.45
2022-09-01T03:40:10.899Z,72.62
2022-09-01T03:42:41.272Z,72.39
2022-09-01T03:45:15.853Z,72.55
2022-09-01T03:47:46.738Z,72.29
2022-09-01T03:50:23.008Z,72.38
2022-09-01T03:52:56.273Z,72.29
2022-09-01T03:55:33.968Z,72.11
2022-09-01T03:58:10.011Z,72.10
2022-09-01T04:00:50.040Z,71.91
2022-09-01T04:03:28.575Z,72.11
2022-09-01T04:05:58.711Z,72.40
2022-09-01T04:08:33.068Z,72.29
2022-09-01T04:11:05.649Z,72.49
2022-09-01T04:13:41.368Z,72.32
2022-09-01T04:16:36.941Z,71.82
2022-09-01T04:19:15.417Z,70.68
2022-09-01T04:21:45.642Z,69.68
2022-09-01T04:24:18.501Z,69.17
2022-09-01T04:26:49.988Z,68.16
2022-09-01T04:29:27.072Z,68.12
2022-09-01T04:32:02.233Z,67.16
2022-09-01T04:34:36.790Z,67.27
2022-09-01T04:37:10.635Z,67.31
2022-09-01T04:39:50.356Z,67.20
2022-09-01T04:42:32.042Z,64.71
2022-09-01T04:45:10.484Z,64.71
2022-09-01T04:47:46.286Z,64.47
2022-09-01T04:50:21.708Z,64.21
2022-09-01T04:53:11.699Z,64.30
2022-09-01T04:55:45.776Z,63.88
2022-09-01T04:58:25.377Z,63.91
2022-09-01T05:00:56.218Z,64.43
2022-09-01T05:03:31.788Z,64.67
2022-09-01T05:06:33.319Z,64.65
2022-09-01T05:09:02.721Z,65.10
2022-09-01T05:11:51.393Z,64.99
2022-09-01T05:14:25.994Z,64.86
2022-09-01T05:16:59.910Z,64.44
2022-09-01T05:19:32.385Z,63.42
2022-09-01T05:22:04.286Z,62.96
2022-09-01T05:24:43.238Z,63.21
2022-09-01T05:27:14.770Z,62.85
2022-09-01T05:29:46.893Z,62.08
2022-09-01T05:32:17.209Z,61.33
2022-09-01T05:34:54.468Z,61.66
2022-09-01T05:37:23.733Z,61.47
2022-09-01T05:39:53.228Z,60.71
2022-09-01T05:42:32.239Z,60.02
2022-09-01T05:45:01.753Z,59.61
2022-09-01T05:47:37.101Z,58.90
2022-09-01T05:50:14.330Z,58.19
2022-09-01T05:52:45.277Z,57.63
2022-09-01T05:55:14.929Z,58.07
2022-09-01T05:57:52.772Z,58.20
2022-09-01T06:00:22.286Z,58.17
2022-09-01T06:02:53.219Z,58.46
2022-09-01T06:05:26.668Z,58.00
2022-09-01T06:07:57.064Z,57.95
2022-09-01T06:10:26.719Z,57.21
2022-09-01T06:12:56.191Z,57.16
2022-09-01T06:15:29.056Z,57.43
2022-09-01T06:18:04.957Z,57.47
2022-09-01T06:20:41.324Z,57.46
2022-09-01T06:23:17.015Z,57.24
2022-09-01T06:28:32.476Z,57.19
2022-09-01T06:31:03.403Z,57.44
2022-09-01T06:33:33.193Z,57.13
2022-09-01T06:36:05.829Z,57.01
2022-09-01T06:38:35.790Z,56.96
2022-09-01T06:41:12.438Z,56.44
2022-09-01T06:43:43.551Z,56.24
2022-09-01T06:46:12.910Z,56.01
2022-09-01T06:48:46.265Z,55.47
2022-09-01T06:51:22.003Z,54.39
2022-09-01T06:54:01.711Z,54.09
2022-09-01T06:59:34.679Z,52.64
2022-09-01T07:08:21.554Z,51.69
2022-09-01T07:14:17.691Z,51.54
2022-09-01T07:19:48.290Z,52.44
2022-09-01T07:22:35.848Z,53.34
2022-09-01T07:25:11.815Z,53.48
2022-09-01T07:28:01.094Z,54.81
2022-09-01T07:30:31.250Z,55.69
2022-09-01T07:39:57.368Z,52.91
2022-09-01T07:42:57.099Z,53.11
2022-09-01T07:44:49.989Z,56.55
2022-09-01T07:47:53.578Z,55.99
2022-09-01T07:50:40.420Z,56.26
2022-09-01T07:53:12.017Z,55.03
2022-09-01T07:55:44.078Z,54.39
2022-09-01T07:58:16.079Z,53.68
2022-09-01T08:00:49.486Z,54.28
2022-09-01T08:03:22.474Z,54.46
2022-09-01T08:05:56.120Z,54.99
2022-09-01T08:08:29.006Z,55.99
2022-09-01T08:13:42.197Z,55.98
2022-09-01T08:16:18.047Z,56.16
2022-09-01T08:18:49.994Z,55.21
2022-09-01T08:21:26.297Z,54.13
2022-09-01T08:24:01.673Z,53.74
2022-09-01T08:26:32.845Z,53.38
2022-09-01T08:29:10.080Z,51.96
2022-09-01T08:31:43.762Z,51.62
2022-09-01T08:34:13.392Z,51.30
2022-09-01T08:36:42.723Z,51.05
2022-09-01T08:39:13.092Z,50.14
2022-09-01T08:41:53.856Z,49.71
2022-09-01T08:44:40.685Z,49.60
2022-09-01T08:47:15.327Z,49.40
2022-09-01T08:49:47.637Z,49.17
2022-09-01T08:52:29.701Z,49.85
2022-09-01T08:55:14.350Z,50.11
2022-09-01T08:57:47.957Z,50.54
2022-09-01T09:00:27.733Z,49.81
2022-09-01T09:03:12.990Z,49.39
2022-09-01T09:06:06.754Z,49.29
2022-09-01T09:08:59.687Z,49.28
2022-09-01T09:12:04.349Z,49.64
2022-09-01T09:14:52.577Z,49.90
2022-09-01T09:17:31.852Z,50.39
2022-09-01T09:20:02.950Z,50.56
2022-09-01T09:22:39.017Z,50.22
2022-09-01T09:25:19.199Z,50.53
2022-09-01T09:27:50.349Z,50.16
2022-09-01T09:30:32.757Z,50.15
2022-09-01T09:36:19.143Z,49.93
2022-09-01T09:39:11.617Z,49.06
2022-09-01T09:41:42.672Z,49.31
2022-09-01T09:44:29.276Z,48.88
2022-09-01T09:46:59.278Z,49.13
2022-09-01T09:49:36.359Z,49.91
2022-09-01T09:52:24.230Z,50.15
2022-09-01T09:55:05.549Z,50.99
2022-09-01T09:57:41.395Z,50.72
2022-09-01T10:00:24.075Z,50.33
2022-09-01T10:02:57.614Z,51.13
2022-09-01T10:05:43.292Z,51.25
2022-09-01T10:08:19.116Z,51.71
2022-09-01T10:10:57.545Z,52.16
2022-09-01T10:13:35.192Z,52.53
2022-09-01T10:16:10.320Z,51.93
2022-09-01T10:18:44.368Z,50.89
2022-09-01T10:21:21.212Z,50.42
2022-09-01T10:23:50.877Z,50.41
2022-09-01T10:26:25.636Z,50.32
2022-09-01T10:29:00.768Z,51.28
2022-09-01T10:31:32.621Z,50.60
2022-09-01T10:34:05.898Z,50.60
2022-09-01T10:36:47.573Z,50.42
2022-09-01T10:39:28.683Z,50.33
2022-09-01T10:42:07.211Z,49.55
2022-09-01T10:44:38.556Z,49.27
2022-09-01T10:47:14.507Z,49.59
2022-09-01T10:50:01.235Z,48.98
2022-09-01T10:53:04.697Z,49.53
2022-09-01T10:55:47.039Z,50.21
2022-09-01T11:02:23.004Z,49.47
2022-09-01T11:05:18.983Z,49.06
2022-09-01T11:08:15.037Z,48.36
2022-09-01T11:11:00.578Z,47.75
2022-09-01T11:13:39.227Z,47.71
2022-09-01T11:16:49.624Z,48.12
2022-09-01T11:19:37.165Z,47.83
2022-09-01T11:22:26.475Z,46.86
2022-09-01T11:25:40.837Z,46.48
2022-09-01T11:28:41.170Z,46.61
2022-09-01T11:31:31.686Z,45.89
2022-09-01T11:34:12.693Z,46.99
2022-09-01T11:36:53.819Z,47.05
2022-09-01T11:39:41.327Z,47.60
2022-09-01T11:42:15.272Z,47.07
2022-09-01T11:44:51.498Z,47.53
2022-09-01T11:47:30.675Z,46.99
2022-09-01T11:50:02.947Z,46.26
2022-09-01T11:52:41.065Z,45.96
2022-09-01T11:55:17.204Z,45.97
2022-09-01T11:57:46.673Z,45.54
2022-09-01T12:00:29.442Z,45.30
2022-09-01T12:02:59.714Z,45.23
2022-09-01T12:05:39.757Z,46.14
2022-09-01T12:08:17.269Z,46.42
2022-09-01T12:10:53.126Z,46.74
2022-09-01T12:13:24.310Z,46.52
2022-09-01T12:18:39.374Z,46.19
2022-09-01T12:21:09.996Z,45.81
2022-09-01T12:23:44.940Z,46.17
2022-09-01T12:26:17.583Z,46.07
2022-09-01T12:28:52.894Z,46.77
2022-09-01T12:31:30.398Z,46.88
2022-09-01T12:34:17.402Z,47.05
2022-09-01T12:39:41.079Z,46.26
2022-09-01T12:42:14.844Z,46.56
2022-09-01T12:44:53.336Z,46.60
2022-09-01T12:57:38.567Z,45.82
2022-09-01T13:00:11.366Z,45.87
2022-09-01T13:02:45.678Z,46.30
2022-09-01T13:05:28.416Z,46.50
2022-09-01T13:08:09.538Z,45.95
2022-09-01T13:10:43.230Z,46.00
2022-09-01T13:15:54.178Z,45.74
2022-09-01T13:19:10.348Z,46.08
2022-09-01T13:21:29.884Z,46.04
2022-09-01T13:23:59.121Z,46.21
2022-09-01T13:26:30.823Z,45.85
2022-09-01T13:29:02.615Z,45.29
2022-09-01T13:31:32.282Z,45.56
2022-09-01T13:36:48.117Z,45.02
2022-09-01T13:39:20.369Z,45.29
2022-09-01T13:41:50.020Z,45.90
2022-09-01T13:44:21.284Z,46.10
2022-09-01T13:50:04.683Z,46.64
2022-09-01T13:52:29.415Z,46.80
2022-09-01T13:54:58.566Z,46.98
2022-09-01T13:57:27.889Z,46.83
2022-09-01T14:00:10.607Z,47.50
2022-09-01T14:02:40.618Z,47.69
2022-09-01T14:05:14.853Z,47.98
2022-09-01T14:07:44.146Z,48.41
2022-09-01T14:10:14.168Z,48.86
2022-09-01T14:12:50.464Z,48.81
2022-09-01T14:15:27.123Z,49.17
2022-09-01T14:18:00.546Z,49.03
2022-09-01T14:20:36.141Z,49.37
2022-09-01T14:23:13.347Z,49.59
2022-09-01T14:25:45.692Z,49.90
2022-09-01T14:28:20.563Z,50.54
2022-09-01T14:33:33.744Z,50.71
2022-09-01T14:36:03.202Z,52.55
2022-09-01T14:38:32.619Z,53.58
2022-09-01T14:41:07.026Z,53.41
2022-09-01T14:43:42.660Z,54.06
2022-09-01T14:46:13.920Z,54.82
2022-09-01T14:48:43.584Z,55.62
2022-09-01T14:51:23.342Z,56.76
2022-09-01T14:53:53.445Z,57.36
2022-09-01T14:56:23.361Z,57.97
2022-09-01T14:59:00.035Z,57.70
2022-09-01T15:01:34.664Z,58.75
2022-09-01T15:04:09.722Z,58.59
2022-09-01T15:06:38.806Z,59.98
2022-09-01T15:09:08.600Z,61.29
2022-09-01T15:11:44.065Z,62.38
2022-09-01T15:14:15.288Z,63.56
2022-09-01T15:16:47.197Z,63.37
2022-09-01T15:19:16.927Z,64.00
2022-09-01T15:21:48.265Z,64.37
2022-09-01T15:24:18.200Z,63.59
2022-09-01T15:26:52.647Z,64.28
2022-09-01T15:29:22.077Z,63.68
2022-09-01T15:31:53.267Z,63.34
2022-09-01T15:34:22.595Z,63.26
2022-09-01T15:36:51.757Z,63.46
2022-09-01T15:39:21.073Z,64.10
2022-09-01T15:41:50.483Z,64.13
2022-09-01T15:44:19.637Z,65.19
2022-09-01T15:47:01.134Z,65.77
2022-09-01T15:49:30.352Z,66.31
2022-09-01T15:52:01.859Z,66.54
2022-09-01T15:54:31.356Z,67.13
2022-09-01T15:57:00.622Z,66.98
2022-09-01T15:59:30.150Z,66.97
2022-09-01T16:02:01.654Z,67.00
2022-09-01T16:04:35.314Z,66.76
2022-09-01T16:07:10.572Z,66.79
2022-09-01T16:09:40.211Z,66.87
2022-09-01T16:12:09.725Z,66.54
2022-09-01T16:14:40.127Z,65.93
2022-09-01T16:17:19.468Z,65.94
2022-09-01T16:19:55.605Z,66.26
2022-09-01T16:22:29.393Z,66.21
2022-09-01T16:25:02.694Z,65.92
2022-09-01T16:27:37.525Z,66.05
2022-09-01T16:30:10.143Z,66.11
2022-09-01T16:32:47.558Z,66.02
2022-09-01T16:35:20.885Z,65.77
2022-09-01T16:40:42.390Z,65.46
2022-09-01T16:43:19.640Z,65.70
2022-09-01T16:46:03.447Z,65.66
2022-09-01T16:48:44.853Z,66.11
2022-09-01T16:51:22.474Z,66.47
2022-09-01T16:54:05.383Z,66.63
2022-09-01T16:56:43.212Z,66.85
2022-09-01T16:59:30.040Z,66.42
2022-09-01T17:02:20.418Z,66.51
2022-09-01T17:05:00.529Z,66.98
2022-09-01T17:07:42.448Z,67.17
2022-09-01T17:10:24.454Z,67.36
2022-09-01T17:12:56.498Z,66.80
2022-09-01T17:15:40.375Z,67.35
2022-09-01T17:18:22.459Z,68.05
2022-09-01T17:21:01.680Z,68.18
2022-09-01T17:23:37.681Z,68.01
2022-09-01T17:26:15.433Z,67.90
2022-09-01T17:28:51.644Z,68.18
2022-09-01T17:31:33.845Z,67.87
2022-09-01T17:34:18.344Z,68.03
2022-09-01T17:37:04.484Z,68.23
2022-09-01T17:39:43.867Z,68.67
2022-09-01T17:42:24.682Z,68.63
2022-09-01T17:44:56.768Z,69.36
2022-09-01T17:47:38.438Z,70.19
2022-09-01T17:50:17.896Z,70.32
2022-09-01T17:52:59.695Z,70.73
2022-09-01T17:55:43.610Z,70.70
2022-09-01T17:58:22.285Z,70.80
2022-09-01T18:00:59.802Z,70.72
2022-09-01T18:03:46.871Z,70.93
2022-09-01T18:06:30.010Z,70.04
2022-09-01T18:09:02.094Z,69.69
2022-09-01T18:11:43.174Z,69.50
2022-09-01T18:14:17.244Z,69.17
2022-09-01T18:16:59.029Z,69.50
2022-09-01T18:19:43.668Z,69.84
2022-09-01T18:22:16.736Z,70.10
2022-09-01T18:24:55.067Z,70.03
2022-09-01T18:27:25.514Z,70.04
2022-09-01T18:29:56.973Z,69.69
2022-09-01T18:32:40.521Z,69.38
2022-09-01T18:35:22.517Z,68.23
2022-09-01T18:38:17.837Z,67.98
2022-09-01T18:41:11.655Z,67.81
2022-09-01T18:43:46.768Z,67.42
2022-09-01T18:46:24.784Z,66.85
2022-09-01T18:49:05.522Z,66.47
2022-09-01T18:54:36.302Z,67.18
2022-09-01T18:57:12.317Z,67.59
2022-09-01T19:00:00.040Z,67.84
2022-09-01T19:02:53.683Z,68.09
2022-09-01T19:05:33.493Z,68.13
2022-09-01T19:08:10.679Z,68.13
2022-09-01T19:10:44.792Z,68.18
2022-09-01T19:13:40.582Z,67.96
2022-09-01T19:16:31.371Z,67.74
2022-09-01T19:19:09.735Z,67.97
2022-09-01T19:21:39.110Z,67.97
2022-09-01T19:24:13.267Z,67.72
2022-09-01T19:26:48.114Z,67.43
2022-09-01T19:29:21.183Z,67.14
2022-09-01T19:31:52.920Z,66.83
2022-09-01T19:34:26.508Z,66.45
2022-09-01T19:36:59.238Z,66.51
2022-09-01T19:39:31.781Z,66.87
2022-09-01T19:42:07.608Z,67.28
2022-09-01T19:44:51.337Z,67.10
2022-09-01T19:47:28.137Z,67.12
2022-09-01T19:50:03.147Z,67.66
2022-09-01T19:52:37.838Z,68.03
2022-09-01T19:55:13.886Z,68.21
2022-09-01T19:57:52.041Z,68.66
2022-09-01T20:00:31.488Z,69.62
2022-09-01T20:03:07.306Z,70.15
2022-09-01T20:05:45.904Z,71.14
2022-09-01T20:08:20.929Z,71.10
2022-09-01T20:10:59.496Z,71.79
2022-09-01T20:14:00.145Z,71.61
2022-09-01T20:16:41.267Z,71.65
2022-09-01T20:19:15.734Z,71.77
2022-09-01T20:21:47.289Z,71.46
2022-09-01T20:24:27.728Z,71.37
2022-09-01T20:27:02.151Z,72.24
2022-09-01T20:29:45.266Z,72.63
2022-09-01T20:32:24.068Z,71.86
2022-09-01T20:34:59.508Z,72.02
2022-09-01T20:37:38.962Z,72.38
2022-09-01T20:40:09.847Z,72.90
2022-09-01T20:42:50.187Z,73.57
2022-09-01T20:45:21.750Z,73.09
2022-09-01T20:47:58.064Z,72.99
2022-09-01T20:50:37.982Z,73.17
2022-09-01T20:53:35.177Z,73.03
2022-09-01T20:56:11.097Z,72.45
2022-09-01T21:01:29.227Z,71.53
2022-09-01T21:04:09.951Z,71.51
2022-09-01T21:06:59.190Z,71.46
2022-09-01T21:09:45.170Z,71.26
2022-09-01T21:15:12.930Z,71.44
2022-09-01T21:17:48.859Z,72.05
2022-09-01T21:20:30.485Z,72.47
2022-09-01T21:23:00.438Z,71.99
2022-09-01T21:25:31.022Z,71.63
2022-09-01T21:28:02.866Z,71.47
2022-09-01T21:30:33.535Z,71.15
2022-09-01T21:33:03.961Z,71.56
2022-09-01T21:35:35.371Z,72.55
2022-09-01T21:38:20.960Z,73.03
2022-09-01T21:40:51.311Z,73.43
2022-09-01T21:43:35.070Z,74.04
2022-09-01T21:46:05.063Z,74.51
2022-09-01T21:48:34.414Z,74.82
2022-09-01T21:51:10.735Z,76.14
2022-09-01T21:53:40.057Z,75.86
2022-09-01T21:56:09.544Z,75.74
2022-09-01T21:58:39.629Z,76.29
2022-09-01T22:01:10.642Z,76.42
2022-09-01T22:03:48.660Z,77.26
2022-09-01T22:06:20.721Z,77.67
2022-09-01T22:08:50.020Z,77.73
2022-09-01T22:11:22.957Z,77.70
2022-09-01T22:13:52.230Z,77.90
2022-09-01T22:16:22.759Z,78.50
2022-09-01T22:18:53.333Z,77.82
2022-09-01T22:21:24.576Z,78.56
2022-09-01T22:23:53.945Z,78.75
2022-09-01T22:26:26.880Z,78.61
2022-09-01T22:28:57.289Z,78.56
2022-09-01T22:31:28.545Z,78.77
2022-09-01T22:33:58.012Z,78.29
2022-09-01T22:36:31.730Z,78.44
2022-09-01T22:39:01.283Z,78.66
2022-09-01T22:41:32.584Z,78.75
2022-09-01T22:44:02.319Z,78.22
2022-09-01T22:46:32.171Z,77.68
2022-09-01T22:49:14.451Z,78.00
2022-09-01T22:51:50.785Z,77.89
2022-09-01T22:54:20.534Z,77.21
2022-09-01T22:56:49.673Z,77.41
2022-09-01T22:59:18.846Z,77.13
2022-09-01T23:01:50.945Z,77.67
2022-09-01T23:04:20.727Z,77.08
2022-09-01T23:06:55.743Z,77.20
2022-09-01T23:09:25.046Z,76.78
2022-09-01T23:11:54.241Z,76.40
2022-09-01T23:14:23.527Z,76.56
2022-09-01T23:16:52.865Z,76.61
2022-09-01T23:19:23.469Z,76.97
2022-09-01T23:22:06.771Z,76.23
2022-09-01T23:24:53.443Z,76.13
2022-09-01T23:27:22.688Z,76.17
2022-09-01T23:29:52.257Z,76.07
2022-09-01T23:32:21.575Z,76.22
2022-09-01T23:34:56.946Z,75.71
2022-09-01T23:37:28.679Z,76.03
2022-09-01T23:40:03.387Z,75.94
2022-09-01T23:42:38.154Z,75.69
2022-09-01T23:45:13.506Z,75.76
2022-09-01T23:47:43.036Z,76.17
2022-09-01T23:50:12.906Z,76.51
2022-09-01T23:52:44.951Z,75.89
2022-09-01T23:55:13.910Z,75.76
2022-09-01T23:57:42.979Z,75.15
